• Join FlightAware (Why Join?)
  • Login
  • US Flag 
07:20AM EDT


 

Airport Tracker/Info


-or-


 

Live Flight TrackerFlight Track Log ✈ N201TT ✈ 01-Jul-2013 ✈ KDEC - KVPS

Flight Track Log - Related Links

Times and Time Zones

All times are in EDT time to prevent confusion due to time zone crossing. See the N201TT flight status page for this flight to view local times or setup timezone preferences in your user account.

Time Position Orientation Groundspeed Altitude Reporting Facility
EDT Latitude Longitude Course Direction KTS MPH feet Rate Location/Type
11:18AM 39.6367 -88.8114 165° South 114 131 5,200  Level Kansas City Center
11:19AM 39.6064 -88.8008 165° South 114 131 5,700 480 Climbing Kansas City Center
11:20AM 39.5744 -88.7892 164° South 116 133 6,300 480 Climbing Kansas City Center
11:22AM 39.5250 -88.7733 166° South 116 133 7,000 480 Climbing Chicago Center
11:22AM 39.5042 -88.7692 171° South 117 135 7,300 480 Climbing Kansas City Center
11:23AM 39.4714 -88.7683 179° South 117 135 7,800 420 Climbing Kansas City Center
11:24AM 39.4367 -88.7736 187° South 118 136 8,200 300 Climbing Kansas City Center
11:25AM 39.4003 -88.7878 197° South 124 143 8,500 240 Climbing Kansas City Center
11:26AM 39.3647 -88.8022 197° South 131 151 8,700 60 Climbing Kansas City Center
11:27AM 39.3217 -88.8158 194° South 149 171 8,700 60 Level Kansas City Center
11:28AM 39.2689 -88.8317 193° South 159 183 8,900  Climbing Kansas City Center
11:29AM 39.2219 -88.8458 193° South 168 193 8,700 -180 Descending Kansas City Center
11:30AM 39.1750 -88.8617 195° South 172 198 8,600 -60 Descending Kansas City Center
11:32AM 39.1267 -88.8764 193° South 176 203 8,600  Level Kansas City Center
11:33AM 39.0758 -88.8933 195° South 175 201 8,600 -60 Level Kansas City Center
11:34AM 39.0353 -88.9150 203° Southwest 173 199 8,500 -120 Descending Kansas City Center
11:35AM 38.9908 -88.9386 202° Southwest 174 200 8,400 -480 Descending Kansas City Center
11:36AM 38.9331 -88.9678 201° Southwest 180 207 7,600 -780 Descending Kansas City Center
11:37AM 38.8917 -89.0119 220° Southwest 190 219 6,900 -540 Descending Kansas City Center
11:38AM 38.8614 -89.0742 238° Southwest 190 219 6,600 -240 Descending Kansas City Center
11:39AM 38.8239 -89.1069 214° Southwest 171 197 6,500 -60 Descending Kansas City Center
11:40AM 38.7736 -89.1139 186° South 168 193 6,500 -120 Level Kansas City Center
11:42AM 38.6908 -89.1275 187° South 178 205 6,300  Descending Indianapolis Center
11:43AM 38.6467 -89.1417 194° South 171 197 6,500 240 Climbing Indianapolis Center
11:44AM 38.6067 -89.1467 186° South 167 192 6,800 360 Climbing Indianapolis Center
11:45AM 38.5744 -89.1333 162° South 142 163 7,300 540 Climbing Indianapolis Center
11:46AM 38.5308 -89.1186 165° South 118 136 8,100 540 Climbing Kansas City Center
11:47AM 38.4992 -89.1069 164° South 112 129 8,600 360 Climbing Kansas City Center
11:48AM 38.4700 -89.0967 165° South 111 128 8,900 300 Climbing Kansas City Center
11:49AM 38.4308 -89.1153 200° South 136 157 9,300 240 Climbing Kansas City Center
11:50AM 38.3944 -89.1322 200° South 138 159 9,500  Climbing Kansas City Center
11:51AM 38.3506 -89.1442 192° South 158 182 9,400 -120 Descending Kansas City Center
11:52AM 38.2994 -89.1672 199° South 178 205 9,300 -60 Descending Kansas City Center
11:53AM 38.2533 -89.1881 200° South 177 204 9,300  Level Kansas City Center
11:54AM 38.2033 -89.2097 199° South 175 201 9,400  Climbing Kansas City Center
11:55AM 38.1581 -89.2286 198° South 175 201 9,300 -60 Descending Kansas City Center
11:56AM 38.1094 -89.2489 198° South 172 198 9,300 -120 Level Kansas City Center
11:57AM 38.0639 -89.2678 198° South 171 197 9,100 -180 Descending Kansas City Center
11:58AM 38.0192 -89.2878 199° South 170 196 9,000 -60 Descending Kansas City Center
11:59AM 37.9697 -89.3125 202° Southwest 176 203 9,000  Level Kansas City Center
12:00PM 37.9233 -89.3322 199° South 176 203 9,000  Level Kansas City Center
12:02PM 37.8739 -89.3525 198° South 173 199 9,000 60 Level Kansas City Center
12:03PM 37.8303 -89.3717 199° South 174 200 9,200 240 Climbing Kansas City Center
12:04PM 37.7892 -89.3903 200° South 166 191 9,600 300 Climbing Kansas City Center
12:05PM 37.7486 -89.4039 195° South 159 183 9,900 240 Climbing Kansas City Center
12:06PM 37.7061 -89.4225 199° South 157 181 10,100 60 Climbing Kansas City Center
12:07PM 37.6567 -89.4397 195° South 157 181 10,100  Level Kansas City Center
12:08PM 37.6128 -89.4556 196° South 159 183 10,200  Climbing Kansas City Center
12:09PM 37.5647 -89.4756 198° South 167 192 10,100 -60 Descending Kansas City Center
12:10PM 37.5189 -89.4942 198° South 171 197 10,100  Level Kansas City Center
12:11PM 37.4711 -89.5136 198° South 175 201 10,100 -60 Level Kansas City Center
12:12PM 37.4242 -89.5342 199° South 177 204 10,000 -60 Descending Kansas City Center
12:13PM 37.3694 -89.5581 199° South 176 203 10,000  Level Kansas City Center
12:14PM 37.3236 -89.5747 196° South 174 200 10,000  Level Kansas City Center
12:16PM 37.2525 -89.6142 204° Southwest 172 198 10,000  Level Memphis Center
12:17PM 37.2069 -89.6328 198° South 172 198 10,000  Level Memphis Center
12:18PM 37.1633 -89.6542 201° Southwest 172 198 10,000 60 Level Memphis Center
12:18PM 37.1444 -89.6625 199° South 172 198 10,100 60 Climbing Kansas City Center
12:19PM 37.0919 -89.6897 202° Southwest 170 196 10,100 -60 Level Kansas City Center
12:20PM 37.0500 -89.7158 206° Southwest 169 194 10,000 -60 Descending Kansas City Center
12:21PM 37.0078 -89.7419 206° Southwest 169 194 10,000  Level Kansas City Center
12:22PM 36.9658 -89.7667 205° Southwest 168 193 10,100  Climbing Kansas City Center
12:24PM 36.9078 -89.8069 209° Southwest 172 198 10,100  Level Memphis Center
12:25PM 36.8661 -89.8306 204° Southwest 172 198 10,100  Level Memphis Center
12:26PM 36.8267 -89.8592 210° Southwest 172 198 10,100  Level Memphis Center
12:27PM 36.7831 -89.8856 206° Southwest 172 198 10,100  Level Memphis Center
12:28PM 36.7436 -89.9142 210° Southwest 172 198 10,100  Level Memphis Center
12:29PM 36.6978 -89.9300 195° South 177 204 10,100 -60 Level Memphis Center
12:30PM 36.6478 -89.9353 185° South 172 198 10,000  Descending Memphis Center
12:31PM 36.6019 -89.9433 188° South 172 198 10,100  Climbing Memphis Center
12:32PM 36.5519 -89.9514 187° South 177 204 10,100  Level Memphis Center
12:33PM 36.5061 -89.9542 183° South 177 204 10,100  Level Memphis Center
12:34PM 36.4581 -89.9569 183° South 177 204 10,100  Level Memphis Center
12:35PM 36.4103 -89.9597 183° South 177 204 10,100  Level Memphis Center
12:36PM 36.3622 -89.9653 185° South 177 204 10,100  Level Memphis Center
12:37PM 36.3164 -89.9681 183° South 177 204 10,100  Level Memphis Center
12:38PM 36.2706 -89.9708 183° South 177 204 10,100  Level Memphis Center
12:39PM 36.2225 -89.9686 178° South 177 204 10,100  Level Memphis Center
12:40PM 36.1747 -89.9686 180° South 177 204 10,100 -60 Level Memphis Center
12:41PM 36.1267 -89.9689 180° South 177 204 10,000 -60 Descending Memphis Center
12:43PM 36.0350 -89.9694 180° South 177 204 10,000  Level Memphis Center
12:44PM 35.9892 -89.9697 180° South 177 204 10,000  Level Memphis Center
12:45PM 35.9411 -89.9700 180° South 177 204 10,000  Level Memphis Center
12:46PM 35.8994 -89.9675 177° South 171 197 10,000  Level Memphis Center
12:47PM 35.8514 -89.9703 183° South 171 197 10,000  Level Memphis Center
12:49PM 35.7617 -89.9656 178° South 171 197 10,100 60 Climbing Memphis Center
12:50PM 35.7158 -89.9683 183° South 166 191 10,200 180 Climbing Memphis Center
12:51PM 35.6700 -89.9686 180° South 157 181 10,500 300 Climbing Memphis Center
12:52PM 35.6303 -89.9689 180° South 149 171 10,800 300 Climbing Memphis Center
12:53PM 35.5928 -89.9561 165° South 142 163 11,200 240 Climbing Memphis Center
12:55PM 35.5167 -89.9167 157° South 137 158 11,800 180 Climbing KMEM
12:56PM 35.4833 -89.8833 141° Southeast 135 155 12,000 180 Climbing KMEM
12:57PM 35.4500 -89.8667 158° South 136 157 12,200 60 Climbing KMEM
12:58PM 35.4000 -89.8500 165° South 146 168 12,200 -60 Level KMEM
12:59PM 35.3667 -89.8167 141° Southeast 157 181 12,100 -60 Descending KMEM
01:00PM 35.3333 -89.7833 141° Southeast 164 189 12,100  Level KMEM
01:01PM 35.2833 -89.7667 165° South 163 188 12,100  Level KMEM
01:02PM 35.2333 -89.7333 151° Southeast 161 185 12,100  Level KMEM
01:03PM 35.2000 -89.7000 141° Southeast 157 181 12,100  Level KMEM
01:04PM 35.1667 -89.6833 158° South 161 185 12,100  Level KMEM
01:05PM 35.1167 -89.6500 151° Southeast 159 183 12,200  Climbing KMEM
01:06PM 35.0833 -89.6167 141° Southeast 159 183 12,200  Level KMEM
01:07PM 35.0667 -89.6000 141° Southeast 162 186 12,200  Level KMEM
01:09PM 35.0031 -89.5631 155° Southeast  Level FlightAware Approximate
01:09PM 34.9833 -89.5500 155° Southeast 162 186 12,200  Level KMEM
01:10PM 34.9333 -89.5333 165° South 162 186 12,200  Level KMEM
01:12PM 34.8394 -89.4714 152° Southeast 167 192 12,200  Level Memphis Center
01:13PM 34.7994 -89.4442 151° Southeast 162 186 12,200 -120 Level Memphis Center
01:14PM 34.7597 -89.4219 155° Southeast 162 186 12,000 -60 Descending Memphis Center
01:15PM 34.7200 -89.3994 155° Southeast 156 180 12,100  Climbing Memphis Center
01:16PM 34.6781 -89.3772 156° South 156 180 12,000 -180 Descending Memphis Center
01:17PM 34.6403 -89.3550 154° Southeast 156 180 11,800 -240 Descending Memphis Center
01:18PM 34.5983 -89.3228 148° Southeast 169 194 11,600 -300 Descending Memphis Center
01:19PM 34.5561 -89.2903 148° Southeast 174 200 11,200 -600 Descending Memphis Center
01:21PM 34.4639 -89.2286 151° Southeast 186 214 9,900 -720 Descending Memphis Center
01:22PM 34.4178 -89.1989 152° Southeast 186 214 9,100 -780 Descending Memphis Center
01:23PM 34.3653 -89.1694 155° Southeast 191 220 8,400 -660 Descending Memphis Center
01:24PM 34.3211 -89.1400 151° Southeast 191 220 7,800 -600 Descending Memphis Center
01:25PM 34.2833 -89.1178 154° Southeast 185 213 7,300 -360 Descending Memphis Center
01:26PM 34.2328 -89.0808 149° Southeast 181 208 7,100 -120 Descending Memphis Center
01:27PM 34.1972 -89.0539 148° Southeast 167 192 7,100  Level Memphis Center
01:28PM 34.1614 -89.0242 146° Southeast 161 185 7,200  Climbing Memphis Center
01:29PM 34.1192 -88.9947 150° Southeast 165 190 7,200  Level Memphis Center
01:30PM 34.0814 -88.9728 154° Southeast 160 184 7,200  Level Memphis Center
01:31PM 34.0458 -88.9483 150° Southeast 156 180 7,200  Level Memphis Center
01:32PM 34.0100 -88.9239 151° Southeast 160 184 7,300 60 Climbing Memphis Center
01:33PM 33.9722 -88.8994 152° Southeast 160 184 7,400  Climbing Memphis Center
01:34PM 33.9342 -88.8750 152° Southeast 160 184 7,300 -120 Descending Memphis Center
01:35PM 33.8900 -88.8508 156° South 155 178 7,200  Descending Memphis Center
01:36PM 33.8544 -88.8289 153° Southeast 154 177 7,300 60 Climbing Memphis Center
01:36PM 33.8544 -88.8289 153° Southeast 152 175 7,300 -120 Level Memphis Center
01:37PM 33.8103 -88.8047 156° South 154 177 7,200 -120 Descending Memphis Center
01:38PM 33.7744 -88.7828 153° Southeast 154 177 7,100 -120 Descending Memphis Center
01:39PM 33.7325 -88.7561 152° Southeast 159 183 7,000  Descending Memphis Center
01:40PM 33.6925 -88.7294 151° Southeast 155 178 7,100 60 Climbing Memphis Center
01:41PM 33.6544 -88.7053 152° Southeast 156 180 7,200  Climbing Memphis Center
01:43PM 33.6208 -88.6758 144° Southeast 157 181 7,200  Level Memphis Center
01:45PM 33.5447 -88.6200 149° Southeast 159 183 7,200 60 Level Memphis Center
01:46PM 33.5108 -88.5858 140° Southeast 157 181 7,400 420 Climbing Memphis Center
01:47PM 33.4917 -88.5489 122° Southeast 133 153 8,100 540 Climbing Memphis Center
01:48PM 33.4722 -88.5144 124° Southeast 121 139 8,600 480 Climbing Memphis Center
01:49PM 33.4508 -88.4825 129° Southeast 120 138 9,100 420 Climbing Memphis Center
01:50PM 33.4256 -88.4606 144° Southeast 120 138 9,500 300 Climbing Memphis Center
01:51PM 33.3939 -88.4389 150° Southeast 123 142 9,800 60 Climbing Memphis Center
01:52PM 33.3581 -88.4172 153° Southeast 139 160 9,700 -120 Descending Memphis Center
01:53PM 33.3203 -88.3958 155° Southeast 152 175 9,600 -120 Descending Memphis Center
01:54PM 33.2803 -88.3717 153° Southeast 156 180 9,500 -60 Descending Memphis Center
01:55PM 33.2381 -88.3478 155° Southeast 156 180 9,500  Level Memphis Center
01:57PM 33.1642 -88.3025 153° Southeast 150 173 9,500  Level Memphis Center
01:58PM 33.1283 -88.2808 153° Southeast 150 173 9,500  Level Memphis Center
02:00PM 33.0578 -88.2266 148° Southeast  Level FlightAware Approximate
02:07PM 32.7781 -88.0351 152° Southeast  Level FlightAware Approximate
02:08PM 32.7374 -88.0094 152° Southeast  Level FlightAware Approximate
02:09PM 32.6967 -87.9837 152° Southeast  Level FlightAware Approximate
02:10PM 32.6559 -87.9581 152° Southeast  Level FlightAware Approximate
02:10PM 32.6422 -88.0325 153° Southeast 152 175 9,600  Level Atlanta Center
02:11PM 32.6153 -87.9323 147° Southeast  Level FlightAware Approximate
02:11PM 32.6072 -88.0111 153° Southeast 166 191 9,600  Level Atlanta Center
02:12PM 32.5767 -87.9022 147° Southeast  Level FlightAware Approximate
02:12PM 32.5664 -87.9847 151° Southeast 159 183 9,600  Level Atlanta Center
02:13PM 32.5382 -87.8722 147° Southeast  Level FlightAware Approximate
02:13PM 32.5275 -87.9608 153° Southeast 159 183 9,600  Level Atlanta Center
02:14PM 32.4996 -87.8422 147° Southeast  Level FlightAware Approximate
02:14PM 32.4906 -87.9394 154° Southeast 153 176 9,600  Level Atlanta Center
02:15PM 32.4607 -87.8131 153° Southeast  Level FlightAware Approximate
02:16PM 32.4195 -87.7884 153° Southeast  Level FlightAware Approximate
02:16PM 32.4786 -87.8781 103° East  Level FlightAware Approximate
02:16PM 32.4225 -87.9119 103° East 148 170 9,700  Level Atlanta Center
02:17PM 32.3836 -87.8928 157° South 148 170 9,600 -60 Descending Atlanta Center
02:18PM 32.3467 -87.8692 152° Southeast 148 170 9,600  Level Atlanta Center
02:19PM 32.3097 -87.8528 159° South 148 170 9,700  Climbing Atlanta Center
02:20PM 32.2728 -87.8317 154° Southeast 148 170 9,700  Level Atlanta Center
02:21PM 32.2358 -87.8153 159° South 148 170 9,700  Level Atlanta Center
02:22PM 32.1989 -87.7917 152° Southeast 148 170 9,700  Level Atlanta Center
02:23PM 32.1642 -87.7681 150° Southeast 148 170 9,800  Climbing Atlanta Center
02:24PM 32.1269 -87.7494 157° South 148 170 9,800  Level Atlanta Center
02:25PM 32.0903 -87.7283 154° Southeast 148 170 9,800 -60 Level Atlanta Center
02:26PM 32.0533 -87.7072 154° Southeast 148 170 9,700  Descending Atlanta Center
02:27PM 32.0164 -87.6861 154° Southeast 148 170 9,800  Climbing Atlanta Center
02:28PM 31.9836 -87.6628 149° Southeast 148 170 9,800 -120 Level Atlanta Center
02:29PM 31.9425 -87.6364 151° Southeast 155 178 9,600 -180 Descending Atlanta Center
02:30PM 31.9117 -87.6206 156° South 148 170 9,500 -60 Descending Atlanta Center
02:33PM 31.8342 -87.5467 141° Southeast  Level FlightAware Approximate
02:33PM 31.8136 -87.5508 141° Southeast 138 159 9,500  Level Atlanta Center
02:34PM 31.7808 -87.5275 149° Southeast 138 159 9,600  Climbing Atlanta Center
02:35PM 31.7481 -87.5042 149° Southeast 138 159 9,600  Level Atlanta Center
02:38PM 31.6746 -87.4251 138° Southeast  Level FlightAware Approximate
02:38PM 31.6539 -87.4372 138° Southeast 138 159 9,600  Level Atlanta Center
02:40PM 31.5850 -87.4064 159° South 134 154 9,700  Climbing Jacksonville Center
02:41PM 31.5503 -87.3853 153° Southeast 134 154 9,700 -60 Level Jacksonville Center
02:42PM 31.5156 -87.3667 155° Southeast 134 154 9,600 -60 Descending Jacksonville Center
02:43PM 31.4786 -87.3525 162° South 134 154 9,600  Level Jacksonville Center
02:44PM 31.4411 -87.3436 169° South 134 154 9,700  Climbing Jacksonville Center
02:45PM 31.4042 -87.3272 159° South 139 160 9,600 -120 Descending Jacksonville Center
02:46PM 31.3694 -87.3061 153° Southeast 144 166 9,500  Descending Jacksonville Center
02:47PM 31.3369 -87.2803 146° Southeast 144 166 9,700  Climbing Jacksonville Center
02:48PM 31.3044 -87.2519 143° Southeast 144 166 9,500 -60 Descending Jacksonville Center
02:49PM 31.2719 -87.2261 146° Southeast 144 166 9,600 60 Climbing Jacksonville Center
02:50PM 31.2394 -87.2028 148° Southeast 139 160 9,700  Climbing Jacksonville Center
02:51PM 31.2111 -87.1722 137° Southeast 144 166 9,700  Level Jacksonville Center
02:52PM 31.1806 -87.1514 150° Southeast 142 163 9,700 -300 Level Jacksonville Center
02:53PM 31.1378 -87.1181 146° Southeast 158 182 9,200 -360 Descending Jacksonville Center
02:54PM 31.0992 -87.0872 146° Southeast 170 196 8,900 -300 Descending Jacksonville Center
02:55PM 31.0689 -87.0592 142° Southeast 170 196 8,700 -540 Descending Jacksonville Center
02:56PM 31.0306 -87.0139 135° Southeast 183 211 7,900 -720 Descending Jacksonville Center
02:57PM 30.9947 -86.9661 131° Southeast 181 208 7,200 -600 Descending Jacksonville Center
02:58PM 30.9539 -86.9353 147° Southeast 186 214 6,700 -600 Descending Jacksonville Center
02:59PM 30.9172 -86.9022 142° Southeast 181 208 6,100 -660 Descending Jacksonville Center
03:02PM 30.8417 -86.8257 139° Southeast  Level FlightAware Approximate
03:09PM 30.5755 -86.6098 144° Southeast  Level FlightAware Approximate
03:10PM 30.5381 -86.5777 144° Southeast  Level FlightAware Approximate
03:11PM 30.5006 -86.5457 144° Southeast  Level FlightAware Approximate
03:12PM 30.4832 -86.5260 144° Southeast  Level Estimated
03:13PM 30.4832 -86.5260 144° Southeast  Level Estimated
03:14PM 30.4832 -86.5260 144° Southeast  Level Estimated
03:15PM 30.4832 -86.5260 144° Southeast  Level Estimated
03:16PM 30.4832 -86.5260 144° Southeast  Level Estimated
03:17PM 30.4832 -86.5260 144° Southeast  Level Estimated
03:18PM 30.4832 -86.5260 144° Southeast  Level Estimated
03:19PM 30.4832 -86.5260 144° Southeast  Level Estimated
03:20PM 30.4832 -86.5260 144° Southeast  Level Estimated
03:21PM 30.4832 -86.5260 144° Southeast  Level Estimated
03:22PM 30.4832 -86.5260 144° Southeast  Level Estimated
03:23PM 30.4832 -86.5260 144° Southeast  Level Estimated
03:24PM 30.4832 -86.5260 144° Southeast  Level Estimated
03:25PM 30.4832 -86.5260 144° Southeast  Level Estimated
03:26PM 30.4832 -86.5260 144° Southeast  Level Estimated